createdAt,value
2022-12-13T00:00:19.347Z,19.67
2022-12-13T00:02:47.069Z,20.47
2022-12-13T00:05:15.225Z,18.90
2022-12-13T00:07:43.221Z,18.57
2022-12-13T00:10:11.259Z,19.87
2022-12-13T00:12:38.948Z,19.67
2022-12-13T00:15:09.488Z,18.93
2022-12-13T00:20:05.823Z,18.40
2022-12-13T00:22:33.456Z,18.67
2022-12-13T00:25:01.224Z,18.47
2022-12-13T00:27:28.969Z,18.40
2022-12-13T00:29:56.642Z,18.53
2022-12-13T00:32:25.686Z,18.67
2022-12-13T00:34:54.493Z,17.23
2022-12-13T00:37:22.185Z,18.37
2022-12-13T00:39:49.947Z,17.43
2022-12-13T00:42:17.594Z,18.23
2022-12-13T00:44:45.362Z,18.40
2022-12-13T00:47:13.011Z,17.73
2022-12-13T00:49:42.364Z,17.67
2022-12-13T00:52:10.086Z,18.33
2022-12-13T00:54:37.843Z,18.13
2022-12-13T00:57:05.490Z,17.93
2022-12-13T00:59:33.305Z,18.07
2022-12-13T01:02:01.065Z,18.03
2022-12-13T01:04:28.894Z,18.07
2022-12-13T01:06:57.886Z,18.07
2022-12-13T01:09:27.298Z,19.23
2022-12-13T01:11:57.643Z,17.73
2022-12-13T01:14:25.386Z,18.53
2022-12-13T01:16:55.803Z,17.63
2022-12-13T01:19:23.802Z,18.63
2022-12-13T01:21:51.649Z,18.80
2022-12-13T01:24:25.923Z,17.03
2022-12-13T01:26:56.958Z,18.20
2022-12-13T01:29:25.925Z,18.10
2022-12-13T01:31:54.216Z,18.70
2022-12-13T01:34:26.625Z,18.53
2022-12-13T01:36:58.373Z,19.87
2022-12-13T01:39:28.162Z,20.43
2022-12-13T01:41:59.554Z,18.53
2022-12-13T01:45:09.986Z,19.47
2022-12-13T01:47:39.993Z,17.53
2022-12-13T01:50:09.379Z,17.63
2022-12-13T01:52:37.035Z,17.30
2022-12-13T01:55:07.475Z,18.67
2022-12-13T01:57:36.192Z,17.77
2022-12-13T02:00:05.070Z,18.80
2022-12-13T02:02:32.712Z,19.33
2022-12-13T02:05:05.034Z,18.73
2022-12-13T02:07:33.890Z,18.37
2022-12-13T02:10:02.500Z,18.23
2022-12-13T02:12:32.162Z,19.67
2022-12-13T02:15:00.596Z,17.33
2022-12-13T02:17:30.910Z,18.43
2022-12-13T02:20:13.458Z,18.90
2022-12-13T02:23:01.067Z,17.73
2022-12-13T02:25:42.922Z,18.10
2022-12-13T02:28:31.463Z,17.93
2022-12-13T02:31:03.371Z,18.00
2022-12-13T02:33:40.104Z,18.23
2022-12-13T02:36:10.361Z,19.33
2022-12-13T02:38:40.768Z,17.73
2022-12-13T02:41:14.402Z,17.80
2022-12-13T02:43:46.876Z,18.03
2022-12-13T02:46:17.335Z,19.83
2022-12-13T02:48:45.142Z,18.27
2022-12-13T02:51:13.111Z,19.50
2022-12-13T02:53:41.559Z,19.27
2022-12-13T02:56:09.643Z,17.47
2022-12-13T02:58:39.650Z,17.40
2022-12-13T03:01:27.810Z,17.60
2022-12-13T03:04:02.610Z,17.40
2022-12-13T03:06:34.129Z,18.80
2022-12-13T03:09:14.186Z,19.53
2022-12-13T03:12:11.848Z,17.93
2022-12-13T03:14:40.755Z,17.87
2022-12-13T03:17:10.146Z,17.43
2022-12-13T03:19:38.273Z,19.20
2022-12-13T03:22:06.977Z,18.63
2022-12-13T03:24:34.996Z,17.50
2022-12-13T03:27:02.907Z,18.17
2022-12-13T03:29:31.278Z,18.53
2022-12-13T03:31:59.219Z,18.03
2022-12-13T03:34:43.253Z,17.23
2022-12-13T03:37:12.807Z,17.07
2022-12-13T03:39:40.704Z,18.93
2022-12-13T03:42:08.619Z,19.23
2022-12-13T03:44:36.567Z,18.50
2022-12-13T03:47:04.542Z,19.13
2022-12-13T03:49:35.093Z,19.27
2022-12-13T03:52:03.587Z,18.03
2022-12-13T03:54:31.498Z,18.03
2022-12-13T03:56:59.982Z,17.80
2022-12-13T03:59:28.133Z,18.77
2022-12-13T04:01:56.047Z,18.00
2022-12-13T04:04:24.159Z,17.97
2022-12-13T04:06:53.416Z,17.20
2022-12-13T04:09:21.281Z,17.07
2022-12-13T04:12:06.955Z,16.57
2022-12-13T04:14:34.761Z,17.43
2022-12-13T04:17:02.694Z,17.97
2022-12-13T04:19:30.689Z,18.03
2022-12-13T04:21:59.910Z,16.80
2022-12-13T04:24:31.381Z,17.17
2022-12-13T04:27:00.688Z,16.73
2022-12-13T04:29:34.450Z,17.77
2022-12-13T04:32:03.540Z,18.13
2022-12-13T04:34:36.742Z,18.43
2022-12-13T04:37:06.748Z,17.27
2022-12-13T04:39:34.905Z,16.43
2022-12-13T04:42:02.839Z,18.03
2022-12-13T04:44:35.044Z,17.27
2022-12-13T04:47:04.915Z,17.97
2022-12-13T04:49:33.182Z,17.83
2022-12-13T04:52:02.173Z,17.97
2022-12-13T04:54:36.501Z,16.40
2022-12-13T04:57:07.749Z,17.73
2022-12-13T04:59:36.437Z,17.23
2022-12-13T05:02:05.005Z,17.30
2022-12-13T05:04:33.468Z,16.53
2022-12-13T05:07:01.613Z,18.10
2022-12-13T05:09:30.823Z,16.13
2022-12-13T05:12:01.823Z,16.50
2022-12-13T05:14:30.199Z,17.33
2022-12-13T05:16:58.254Z,16.93
2022-12-13T05:19:31.315Z,16.70
2022-12-13T05:22:01.455Z,16.70
2022-12-13T05:24:32.046Z,17.13
2022-12-13T05:27:00.071Z,17.07
2022-12-13T05:29:28.379Z,17.53
2022-12-13T05:31:56.458Z,17.27
2022-12-13T05:34:24.403Z,17.17
2022-12-13T05:36:52.397Z,16.20
2022-12-13T05:39:28.900Z,16.90
2022-12-13T05:42:01.451Z,16.33
2022-12-13T05:44:31.564Z,17.37
2022-12-13T05:47:02.354Z,17.63
2022-12-13T05:49:30.743Z,16.20
2022-12-13T05:51:58.759Z,16.67
2022-12-13T05:54:26.793Z,15.33
2022-12-13T05:56:54.819Z,17.30
2022-12-13T05:59:24.416Z,15.27
2022-12-13T06:01:52.441Z,15.90
2022-12-13T06:04:23.502Z,17.23
2022-12-13T06:06:52.042Z,16.23
2022-12-13T06:09:20.047Z,16.17
2022-12-13T06:11:49.170Z,16.90
2022-12-13T06:14:22.895Z,16.23
2022-12-13T06:19:20.990Z,17.33
2022-12-13T06:21:48.766Z,15.70
2022-12-13T06:24:16.959Z,17.43
2022-12-13T06:26:44.838Z,16.80
2022-12-13T06:29:13.742Z,16.77
2022-12-13T06:32:01.981Z,16.27
2022-12-13T06:34:33.433Z,17.70
2022-12-13T06:37:01.612Z,16.33
2022-12-13T06:39:32.339Z,15.87
2022-12-13T06:42:07.910Z,15.93
2022-12-13T06:44:36.035Z,16.20
2022-12-13T06:47:11.129Z,15.27
2022-12-13T06:49:43.714Z,16.30
2022-12-13T06:52:13.164Z,17.13
2022-12-13T06:54:41.657Z,16.73
2022-12-13T06:57:09.442Z,15.93
2022-12-13T06:59:38.358Z,16.30
2022-12-13T07:02:06.327Z,15.87
2022-12-13T07:04:53.775Z,16.80
2022-12-13T07:07:21.730Z,16.37
2022-12-13T07:09:49.568Z,16.57
2022-12-13T07:12:17.481Z,15.80
2022-12-13T07:14:45.173Z,16.37
2022-12-13T07:17:13.478Z,15.30
2022-12-13T07:20:03.603Z,15.47
2022-12-13T07:22:35.002Z,15.20
2022-12-13T07:25:05.371Z,17.00
2022-12-13T07:27:33.327Z,16.67
2022-12-13T07:30:01.244Z,15.57
2022-12-13T07:32:29.062Z,16.03
2022-12-13T07:34:59.700Z,15.30
2022-12-13T07:37:29.285Z,16.67
2022-12-13T07:40:03.377Z,17.07
2022-12-13T07:42:31.902Z,17.17
2022-12-13T07:44:59.883Z,17.00
2022-12-13T07:47:30.573Z,16.73
2022-12-13T07:49:58.617Z,15.67
2022-12-13T07:52:27.846Z,16.23
2022-12-13T07:54:55.912Z,16.03
2022-12-13T07:57:23.594Z,16.77
2022-12-13T07:59:51.603Z,16.93
2022-12-13T08:02:19.393Z,17.47
2022-12-13T08:04:55.042Z,17.80
2022-12-13T08:07:23.274Z,16.57
2022-12-13T08:09:53.209Z,15.10
2022-12-13T08:12:23.002Z,17.40
2022-12-13T08:14:53.128Z,18.90
2022-12-13T08:17:22.046Z,17.60
2022-12-13T08:19:50.130Z,17.37
2022-12-13T08:22:23.719Z,17.87
2022-12-13T08:24:53.354Z,15.73
2022-12-13T08:27:21.346Z,16.43
2022-12-13T08:29:49.423Z,15.50
2022-12-13T08:32:18.314Z,16.30
2022-12-13T08:34:46.585Z,16.43
2022-12-13T08:37:14.931Z,16.87
2022-12-13T08:39:42.809Z,16.60
2022-12-13T08:42:16.099Z,17.17
2022-12-13T08:44:46.635Z,15.57
2022-12-13T08:47:23.291Z,15.43
2022-12-13T08:49:53.084Z,16.90
2022-12-13T08:52:22.536Z,14.23
2022-12-13T08:54:51.035Z,14.53
2022-12-13T08:57:20.153Z,14.63
2022-12-13T08:59:48.082Z,13.37
2022-12-13T09:02:16.298Z,14.83
2022-12-13T09:04:44.723Z,13.80
2022-12-13T09:07:12.444Z,14.43
2022-12-13T09:09:40.367Z,14.20
2022-12-13T09:12:10.685Z,14.37
2022-12-13T09:14:45.601Z,13.67
2022-12-13T09:17:24.774Z,14.93
2022-12-13T09:19:57.958Z,14.80
2022-12-13T09:22:33.427Z,14.90
2022-12-13T09:25:02.850Z,15.10
2022-12-13T09:27:31.195Z,15.03
2022-12-13T09:30:12.980Z,15.10
2022-12-13T09:32:41.667Z,16.20
2022-12-13T09:35:10.035Z,15.40
2022-12-13T09:37:44.109Z,15.70
2022-12-13T09:40:16.162Z,15.07
2022-12-13T09:43:11.877Z,14.27
2022-12-13T09:45:43.063Z,15.67
2022-12-13T09:48:22.562Z,14.80
2022-12-13T09:50:58.544Z,14.97
2022-12-13T09:53:39.134Z,14.40
2022-12-13T09:56:10.828Z,14.30
2022-12-13T09:58:39.051Z,16.20
2022-12-13T10:01:08.418Z,14.77
2022-12-13T10:03:36.141Z,14.43
2022-12-13T10:06:15.005Z,14.60
2022-12-13T10:08:57.320Z,13.57
2022-12-13T10:11:31.855Z,11.43
2022-12-13T10:14:03.146Z,13.27
2022-12-13T10:16:39.071Z,10.37
2022-12-13T10:19:28.373Z,12.40
2022-12-13T10:22:01.088Z,10.40
2022-12-13T10:24:36.837Z,10.47
2022-12-13T10:27:19.395Z,9.50
2022-12-13T10:30:10.990Z,10.57
2022-12-13T10:32:47.470Z,10.97
2022-12-13T10:35:47.496Z,10.57
2022-12-13T10:38:31.768Z,9.77
2022-12-13T10:41:01.043Z,10.13
2022-12-13T10:43:30.382Z,9.73
2022-12-13T10:45:59.427Z,10.10
2022-12-13T10:48:38.437Z,9.47
2022-12-13T10:51:07.753Z,9.93
2022-12-13T10:53:36.979Z,12.13
2022-12-13T10:56:04.966Z,9.83
2022-12-13T10:58:37.535Z,9.50
2022-12-13T11:01:13.230Z,9.97
2022-12-13T11:03:42.422Z,10.13
2022-12-13T11:06:13.912Z,9.30
2022-12-13T11:08:41.755Z,9.57
2022-12-13T11:11:10.004Z,10.43
2022-12-13T11:13:39.309Z,9.77
2022-12-13T11:16:18.020Z,9.50
2022-12-13T11:18:49.152Z,9.57
2022-12-13T11:21:18.178Z,9.67
2022-12-13T11:23:45.914Z,9.60
2022-12-13T11:26:24.016Z,8.90
2022-12-13T11:29:07.329Z,8.83
2022-12-13T11:31:37.776Z,9.17
2022-12-13T11:34:18.400Z,8.80
2022-12-13T11:36:49.613Z,8.88
2022-12-13T11:39:23.050Z,8.73
2022-12-13T11:41:55.367Z,9.63
2022-12-13T11:44:30.465Z,9.27
2022-12-13T11:46:59.557Z,8.32
2022-12-13T11:49:34.676Z,8.33
2022-12-13T11:52:03.947Z,9.07
2022-12-13T11:54:34.553Z,8.30
2022-12-13T11:57:04.865Z,9.10
2022-12-13T11:59:39.657Z,8.48
2022-12-13T12:02:16.345Z,8.30
2022-12-13T12:04:47.982Z,8.82
2022-12-13T12:07:33.582Z,8.50
2022-12-13T12:10:06.494Z,9.05
2022-12-13T12:12:34.740Z,8.45
2022-12-13T12:15:15.202Z,8.88
2022-12-13T12:20:23.941Z,8.98
2022-12-13T12:22:56.028Z,9.05
2022-12-13T12:25:26.623Z,9.70
2022-12-13T12:27:58.944Z,8.45
2022-12-13T12:30:27.947Z,8.02
2022-12-13T12:32:58.701Z,8.88
2022-12-13T12:35:59.660Z,7.32
2022-12-13T12:38:40.222Z,7.88
2022-12-13T12:41:25.758Z,7.55
2022-12-13T12:43:55.881Z,7.65
2022-12-13T12:46:42.341Z,7.22
2022-12-13T12:49:48.590Z,7.55
2022-12-13T12:52:21.307Z,8.50
2022-12-13T12:54:52.762Z,7.70
2022-12-13T12:57:23.804Z,10.67
2022-12-13T13:00:01.659Z,8.17
2022-12-13T13:02:32.844Z,7.70
2022-12-13T13:05:03.798Z,8.17
2022-12-13T13:07:39.728Z,7.27
2022-12-13T13:10:16.329Z,7.30
2022-12-13T13:12:53.661Z,8.00
2022-12-13T13:16:01.847Z,7.87
2022-12-13T13:18:50.386Z,7.13
2022-12-13T13:21:42.424Z,6.53
2022-12-13T13:24:17.335Z,6.57
2022-12-13T13:26:45.618Z,6.53
2022-12-13T13:29:35.531Z,6.03
2022-12-13T13:32:29.128Z,5.27
2022-12-13T13:35:18.257Z,6.57
2022-12-13T13:37:47.190Z,5.70
2022-12-13T13:40:34.247Z,6.00
2022-12-13T13:43:17.441Z,6.83
2022-12-13T13:45:55.026Z,6.00
2022-12-13T13:48:38.823Z,5.77
2022-12-13T13:52:08.638Z,6.10
2022-12-13T13:54:54.006Z,6.30
2022-12-13T14:00:48.766Z,7.50
2022-12-13T14:03:43.743Z,6.90
2022-12-13T14:06:38.151Z,6.53
2022-12-13T14:09:15.708Z,6.43
2022-12-13T14:12:11.051Z,5.90
2022-12-13T14:15:06.499Z,7.40
2022-12-13T14:18:21.974Z,7.47
2022-12-13T14:21:19.329Z,6.80
2022-12-13T14:23:55.063Z,7.73
2022-12-13T14:26:34.072Z,6.97
2022-12-13T14:29:03.529Z,7.80
2022-12-13T14:31:36.256Z,7.47
2022-12-13T14:34:05.040Z,7.23
2022-12-13T14:36:35.296Z,7.83
2022-12-13T14:39:03.176Z,8.30
2022-12-13T14:41:30.991Z,7.43
2022-12-13T14:44:16.178Z,7.67
2022-12-13T14:46:55.659Z,7.67
2022-12-13T14:49:24.250Z,8.57
2022-12-13T14:52:00.220Z,7.63
2022-12-13T14:54:30.098Z,8.53
2022-12-13T14:56:59.237Z,7.70
2022-12-13T14:59:27.056Z,8.03
2022-12-13T15:01:58.936Z,8.30
2022-12-13T15:04:28.204Z,7.83
2022-12-13T15:06:58.662Z,7.77
2022-12-13T15:09:28.871Z,7.50
2022-12-13T15:12:01.378Z,7.57
2022-12-13T15:14:43.536Z,8.30
2022-12-13T15:17:31.145Z,7.97
2022-12-13T15:19:58.963Z,8.77
2022-12-13T15:22:29.431Z,7.93
2022-12-13T15:24:57.935Z,8.00
2022-12-13T15:27:26.676Z,8.27
2022-12-13T15:29:54.536Z,7.60
2022-12-13T15:32:24.101Z,8.40
2022-12-13T15:34:52.121Z,8.47
2022-12-13T15:37:28.135Z,7.93
2022-12-13T15:39:58.702Z,8.83
2022-12-13T15:42:30.768Z,9.40
2022-12-13T15:44:59.572Z,10.10
2022-12-13T15:47:29.329Z,15.20
2022-12-13T15:49:58.270Z,10.00
2022-12-13T15:52:36.521Z,8.80
2022-12-13T15:55:28.728Z,8.63
2022-12-13T15:57:57.215Z,8.93
2022-12-13T16:00:31.365Z,8.40
2022-12-13T16:03:09.271Z,7.87
2022-12-13T16:05:38.788Z,7.93
2022-12-13T16:08:13.505Z,8.03
2022-12-13T16:10:46.593Z,6.83
2022-12-13T16:13:25.677Z,8.20
2022-12-13T16:15:59.961Z,7.37
2022-12-13T16:18:44.583Z,7.80
2022-12-13T16:21:12.387Z,7.90
2022-12-13T16:23:48.870Z,7.47
2022-12-13T16:26:21.455Z,7.73
2022-12-13T16:28:49.142Z,7.63
2022-12-13T16:31:18.913Z,7.60
2022-12-13T16:33:48.142Z,6.83
2022-12-13T16:36:15.927Z,6.80
2022-12-13T16:38:43.586Z,7.03
2022-12-13T16:41:11.280Z,8.13
2022-12-13T16:43:40.534Z,6.87
2022-12-13T16:47:11.779Z,6.97
2022-12-13T16:48:57.462Z,7.27
2022-12-13T16:51:25.155Z,7.23
2022-12-13T16:53:53.093Z,7.37
2022-12-13T16:56:21.681Z,6.03
2022-12-13T16:58:50.509Z,7.50
2022-12-13T17:01:20.031Z,6.67
2022-12-13T17:03:47.985Z,8.10
2022-12-13T17:06:17.785Z,6.77
2022-12-13T17:08:45.453Z,6.90
2022-12-13T17:11:17.844Z,6.40
2022-12-13T17:13:47.697Z,10.80
2022-12-13T17:16:16.566Z,11.30
2022-12-13T17:18:44.590Z,6.80
2022-12-13T17:21:12.326Z,6.43
2022-12-13T17:23:42.479Z,19.90
2022-12-13T17:26:11.666Z,7.17
2022-12-13T17:28:39.538Z,7.00
2022-12-13T17:31:07.735Z,6.67
2022-12-13T17:33:36.507Z,7.03
2022-12-13T17:36:04.356Z,7.20
2022-12-13T17:38:32.023Z,7.53
2022-12-13T17:41:01.128Z,6.73
2022-12-13T17:43:36.077Z,7.27
2022-12-13T17:46:04.344Z,7.50
2022-12-13T17:48:39.197Z,6.73
2022-12-13T17:51:08.300Z,6.40
2022-12-13T17:53:37.142Z,6.07
2022-12-13T17:56:08.856Z,7.10
2022-12-13T17:58:37.682Z,8.10
2022-12-13T18:01:11.883Z,7.77
2022-12-13T18:03:39.923Z,9.23
2022-12-13T18:06:11.757Z,7.30
2022-12-13T18:08:40.319Z,7.70
2022-12-13T18:13:57.252Z,6.93
2022-12-13T18:16:30.317Z,6.73
2022-12-13T18:18:59.811Z,6.57
2022-12-13T18:21:28.534Z,6.20
2022-12-13T18:23:56.461Z,9.30
2022-12-13T18:26:25.766Z,7.00
2022-12-13T18:28:53.499Z,6.63
2022-12-13T18:31:22.498Z,6.07
2022-12-13T18:33:50.892Z,7.13
2022-12-13T18:36:18.921Z,6.77
2022-12-13T18:38:46.614Z,7.20
2022-12-13T18:41:16.478Z,5.70
2022-12-13T18:43:46.747Z,6.20
2022-12-13T18:46:15.145Z,6.73
2022-12-13T18:48:43.066Z,8.30
2022-12-13T18:51:11.139Z,6.03
2022-12-13T18:53:39.556Z,6.80
2022-12-13T18:56:12.908Z,5.97
2022-12-13T18:58:46.902Z,6.27
2022-12-13T19:01:15.870Z,6.53
2022-12-13T19:03:48.630Z,6.00
2022-12-13T19:06:17.756Z,6.70
2022-12-13T19:08:48.731Z,6.00
2022-12-13T19:11:17.336Z,5.93
2022-12-13T19:13:53.613Z,5.90
2022-12-13T19:16:23.021Z,5.97
2022-12-13T19:18:51.215Z,5.97
2022-12-13T19:21:21.023Z,5.37
2022-12-13T19:23:56.464Z,5.33
2022-12-13T19:26:29.570Z,6.07
2022-12-13T19:29:04.416Z,5.33
2022-12-13T19:31:32.827Z,5.83
2022-12-13T19:34:01.769Z,5.07
2022-12-13T19:36:37.743Z,5.17
2022-12-13T19:39:05.952Z,5.33
2022-12-13T19:41:33.970Z,5.57
2022-12-13T19:44:05.092Z,5.10
2022-12-13T19:46:33.138Z,4.77
2022-12-13T19:49:01.624Z,5.10
2022-12-13T19:51:34.446Z,5.17
2022-12-13T19:54:11.093Z,7.70
2022-12-13T19:56:39.171Z,4.73
2022-12-13T19:59:08.375Z,4.80
2022-12-13T20:01:36.369Z,5.00
2022-12-13T20:04:05.229Z,5.07
2022-12-13T20:06:33.214Z,5.73
2022-12-13T20:09:01.632Z,5.30
2022-12-13T20:11:29.951Z,4.60
2022-12-13T20:13:57.798Z,4.17
2022-12-13T20:16:27.328Z,4.47
2022-12-13T20:18:56.769Z,4.33
2022-12-13T20:21:24.711Z,9.77
2022-12-13T20:23:52.887Z,4.53
2022-12-13T20:26:21.911Z,4.27
2022-12-13T20:28:49.810Z,4.27
2022-12-13T20:31:18.410Z,3.80
2022-12-13T20:33:48.069Z,4.83
2022-12-13T20:36:25.530Z,3.93
2022-12-13T20:38:55.188Z,3.87
2022-12-13T20:41:22.984Z,4.17
2022-12-13T20:43:52.342Z,4.33
2022-12-13T20:46:20.243Z,4.20
2022-12-13T20:48:49.838Z,3.63
2022-12-13T20:51:19.029Z,4.63
2022-12-13T20:53:47.712Z,3.47
2022-12-13T20:56:16.319Z,3.73
2022-12-13T20:58:44.269Z,3.57
2022-12-13T21:01:15.248Z,3.20
2022-12-13T21:03:43.160Z,3.93
2022-12-13T21:06:12.598Z,3.40
2022-12-13T21:08:52.772Z,3.17
2022-12-13T21:11:26.328Z,3.50
2022-12-13T21:13:55.924Z,4.50
2022-12-13T21:16:23.907Z,4.67
2022-12-13T21:18:53.925Z,3.87
2022-12-13T21:21:23.075Z,3.43
2022-12-13T21:23:50.737Z,3.17
2022-12-13T21:26:18.903Z,3.77
2022-12-13T21:28:47.509Z,3.60
2022-12-13T21:31:16.351Z,3.50
2022-12-13T21:33:44.043Z,3.83
2022-12-13T21:36:12.914Z,3.47
2022-12-13T21:38:42.084Z,3.47
2022-12-13T21:41:10.002Z,4.10
2022-12-13T21:43:37.874Z,3.93
2022-12-13T21:46:07.688Z,3.53
2022-12-13T21:48:35.726Z,3.50
2022-12-13T21:51:03.468Z,3.80
2022-12-13T21:53:31.126Z,3.67
2022-12-13T21:56:16.836Z,3.70
2022-12-13T21:59:02.172Z,2.67
2022-12-13T22:01:50.183Z,3.50
2022-12-13T22:04:17.980Z,3.47
2022-12-13T22:06:45.734Z,3.50
2022-12-13T22:09:13.369Z,3.50
2022-12-13T22:11:42.700Z,3.03
2022-12-13T22:14:10.400Z,3.37
2022-12-13T22:16:38.171Z,3.57
2022-12-13T22:19:05.848Z,3.20
2022-12-13T22:21:33.696Z,2.83
2022-12-13T22:24:01.339Z,3.33
2022-12-13T22:26:29.118Z,3.17
2022-12-13T22:28:59.342Z,3.70
2022-12-13T22:31:29.874Z,3.70
2022-12-13T22:33:57.998Z,3.17
2022-12-13T22:36:25.913Z,4.07
2022-12-13T22:38:53.735Z,3.20
2022-12-13T22:41:21.591Z,4.33
2022-12-13T22:43:49.289Z,3.33
2022-12-13T22:46:20.082Z,3.30
2022-12-13T22:48:47.755Z,3.73
2022-12-13T22:51:16.308Z,3.37
2022-12-13T22:53:45.235Z,3.03
2022-12-13T22:56:14.090Z,3.73
2022-12-13T22:58:41.994Z,3.80
2022-12-13T23:01:10.697Z,3.60
2022-12-13T23:03:40.078Z,3.27
2022-12-13T23:06:09.326Z,3.50
2022-12-13T23:08:41.841Z,3.20
2022-12-13T23:11:28.798Z,3.33
2022-12-13T23:13:57.362Z,3.07
2022-12-13T23:16:26.002Z,3.33
2022-12-13T23:19:16.998Z,3.20
2022-12-13T23:21:42.767Z,3.13
2022-12-13T23:24:16.473Z,2.80
2022-12-13T23:26:45.245Z,3.30
2022-12-13T23:29:15.862Z,4.20
2022-12-13T23:31:48.666Z,3.83
2022-12-13T23:34:18.040Z,3.43
2022-12-13T23:36:45.709Z,3.63
2022-12-13T23:39:13.375Z,2.90
2022-12-13T23:41:43.222Z,3.30
2022-12-13T23:44:13.144Z,2.63
2022-12-13T23:46:40.877Z,2.80
2022-12-13T23:49:08.687Z,2.87
2022-12-13T23:51:38.379Z,3.87
2022-12-13T23:54:07.503Z,3.03
2022-12-13T23:56:35.375Z,3.27
2022-12-13T23:59:03.154Z,3.33
